sensor_id;sensor_type;location;lat;lon;timestamp;pressure;altitude;pressure_sealevel;temperature;humidity
50484;BME280;36409;52.168;20.878;2024-02-26T00:01:01;99631.02;;;2.98;69.97
50484;BME280;36409;52.168;20.878;2024-02-26T00:03:55;99633.54;;;2.93;69.39
50484;BME280;36409;52.168;20.878;2024-02-26T00:06:35;99630.97;;;2.90;69.35
50484;BME280;36409;52.168;20.878;2024-02-26T00:09:08;99640.41;;;2.87;69.47
50484;BME280;36409;52.168;20.878;2024-02-26T00:11:40;99631.77;;;2.82;69.43
50484;BME280;36409;52.168;20.878;2024-02-26T00:14:13;99618.86;;;2.75;69.60
50484;BME280;36409;52.168;20.878;2024-02-26T00:16:45;99623.09;;;2.67;69.33
50484;BME280;36409;52.168;20.878;2024-02-26T00:19:18;99623.06;;;2.61;70.19
50484;BME280;36409;52.168;20.878;2024-02-26T00:21:50;99619.61;;;2.57;70.37
50484;BME280;36409;52.168;20.878;2024-02-26T00:24:24;99617.00;;;2.56;70.12
50484;BME280;36409;52.168;20.878;2024-02-26T00:26:57;99627.34;;;2.57;70.21
50484;BME280;36409;52.168;20.878;2024-02-26T00:29:34;99621.34;;;2.60;69.87
50484;BME280;36409;52.168;20.878;2024-02-26T00:32:08;99621.34;;;2.61;70.61
50484;BME280;36409;52.168;20.878;2024-02-26T00:34:40;99617.91;;;2.62;70.55
50484;BME280;36409;52.168;20.878;2024-02-26T00:37:13;99621.36;;;2.66;71.00
50484;BME280;36409;52.168;20.878;2024-02-26T00:39:45;99615.38;;;2.70;70.99
50484;BME280;36409;52.168;20.878;2024-02-26T00:42:18;99618.84;;;2.74;70.75
50484;BME280;36409;52.168;20.878;2024-02-26T00:44:51;99615.41;;;2.75;70.75
50484;BME280;36409;52.168;20.878;2024-02-26T00:47:24;99615.41;;;2.76;71.08
50484;BME280;36409;52.168;20.878;2024-02-26T00:49:56;99620.59;;;2.78;71.40
50484;BME280;36409;52.168;20.878;2024-02-26T00:52:29;99606.84;;;2.79;71.40
50484;BME280;36409;52.168;20.878;2024-02-26T00:55:03;99605.13;;;2.78;71.11
50484;BME280;36409;52.168;20.878;2024-02-26T00:57:43;99608.55;;;2.78;70.87
50484;BME280;36409;52.168;20.878;2024-02-26T01:00:17;99611.13;;;2.77;71.44
50484;BME280;36409;52.168;20.878;2024-02-26T01:02:50;99611.13;;;2.77;70.74
50484;BME280;36409;52.168;20.878;2024-02-26T01:05:23;99615.41;;;2.76;71.66
50484;BME280;36409;52.168;20.878;2024-02-26T01:07:55;99620.56;;;2.76;70.76
50484;BME280;36409;52.168;20.878;2024-02-26T01:10:28;99616.23;;;2.69;71.10
50484;BME280;36409;52.168;20.878;2024-02-26T01:13:02;99617.06;;;2.62;70.61
50484;BME280;36409;52.168;20.878;2024-02-26T01:15:43;99617.88;;;2.58;70.68
50484;BME280;36409;52.168;20.878;2024-02-26T01:18:15;99620.46;;;2.56;70.67
50484;BME280;36409;52.168;20.878;2024-02-26T01:20:49;99614.42;;;2.56;71.64
50484;BME280;36409;52.168;20.878;2024-02-26T01:23:21;99615.28;;;2.53;71.73
50484;BME280;36409;52.168;20.878;2024-02-26T01:25:54;99623.01;;;2.52;71.55
50484;BME280;36409;52.168;20.878;2024-02-26T01:28:27;99609.25;;;2.50;70.84
50484;BME280;36409;52.168;20.878;2024-02-26T01:31:00;99610.06;;;2.45;71.47
50484;BME280;36409;52.168;20.878;2024-02-26T01:33:51;99610.92;;;2.44;71.54
50484;BME280;36409;52.168;20.878;2024-02-26T01:36:24;99618.64;;;2.44;71.00
50484;BME280;36409;52.168;20.878;2024-02-26T01:38:58;99615.19;;;2.42;71.75
50484;BME280;36409;52.168;20.878;2024-02-26T01:41:30;99620.34;;;2.41;71.12
50484;BME280;36409;52.168;20.878;2024-02-26T01:44:05;99624.62;;;2.39;71.96
50484;BME280;36409;52.168;20.878;2024-02-26T01:46:38;99623.73;;;2.37;71.12
50484;BME280;36409;52.168;20.878;2024-02-26T01:49:19;99619.44;;;2.34;71.61
50484;BME280;36409;52.168;20.878;2024-02-26T01:51:53;99617.70;;;2.30;71.11
50484;BME280;36409;52.168;20.878;2024-02-26T01:54:26;99615.95;;;2.24;71.09
50484;BME280;36409;52.168;20.878;2024-02-26T01:56:59;99619.34;;;2.22;71.67
50484;BME280;36409;52.168;20.878;2024-02-26T01:59:32;99619.34;;;2.20;71.76
50484;BME280;36409;52.168;20.878;2024-02-26T02:02:07;99624.48;;;2.19;71.45
50484;BME280;36409;52.168;20.878;2024-02-26T02:04:43;99619.30;;;2.15;71.46
50484;BME280;36409;52.168;20.878;2024-02-26T02:07:27;99608.09;;;2.07;71.80
50484;BME280;36409;52.168;20.878;2024-02-26T02:10:00;99614.01;;;1.98;71.36
50484;BME280;36409;52.168;20.878;2024-02-26T02:12:36;99615.66;;;1.92;71.35
50484;BME280;36409;52.168;20.878;2024-02-26T02:15:12;99611.32;;;1.86;71.40
50484;BME280;36409;52.168;20.878;2024-02-26T02:17:45;99609.55;;;1.80;71.08
50484;BME280;36409;52.168;20.878;2024-02-26T02:20:31;99608.62;;;1.74;71.65
50484;BME280;36409;52.168;20.878;2024-02-26T02:23:07;99607.74;;;1.68;71.23
50484;BME280;36409;52.168;20.878;2024-02-26T02:25:40;99605.13;;;1.67;71.46
50484;BME280;36409;52.168;20.878;2024-02-26T02:28:13;99602.56;;;1.67;72.43
50484;BME280;36409;52.168;20.878;2024-02-26T02:30:45;99610.31;;;1.68;71.48
50484;BME280;36409;52.168;20.878;2024-02-26T02:33:25;99612.89;;;1.68;71.98
50484;BME280;36409;52.168;20.878;2024-02-26T02:36:01;99618.88;;;1.69;72.78
50484;BME280;36409;52.168;20.878;2024-02-26T02:38:37;99618.03;;;1.70;71.88
50484;BME280;36409;52.168;20.878;2024-02-26T02:41:09;99614.62;;;1.71;71.82
50484;BME280;36409;52.168;20.878;2024-02-26T02:43:44;99615.46;;;1.68;71.67
50484;BME280;36409;52.168;20.878;2024-02-26T02:46:19;99611.92;;;1.60;71.52
50484;BME280;36409;52.168;20.878;2024-02-26T02:48:54;99617.86;;;1.53;71.95
50484;BME280;36409;52.168;20.878;2024-02-26T02:51:31;99616.97;;;1.49;72.16
50484;BME280;36409;52.168;20.878;2024-02-26T02:54:06;99628.99;;;1.50;72.29
50484;BME280;36409;52.168;20.878;2024-02-26T02:56:39;99627.23;;;1.48;72.83
50484;BME280;36409;52.168;20.878;2024-02-26T02:59:11;99636.67;;;1.49;71.90
50484;BME280;36409;52.168;20.878;2024-02-26T03:01:44;99638.44;;;1.51;72.90
50484;BME280;36409;52.168;20.878;2024-02-26T03:04:16;99641.02;;;1.53;71.97
50484;BME280;36409;52.168;20.878;2024-02-26T03:06:49;99648.78;;;1.58;72.67
50484;BME280;36409;52.168;20.878;2024-02-26T03:09:22;99640.17;;;1.56;72.07
50484;BME280;36409;52.168;20.878;2024-02-26T03:12:06;99638.44;;;1.51;72.23
50484;BME280;36409;52.168;20.878;2024-02-26T03:14:39;99647.80;;;1.48;72.13
50484;BME280;36409;52.168;20.878;2024-02-26T03:17:11;99652.09;;;1.46;72.19
50484;BME280;36409;52.168;20.878;2024-02-26T03:19:45;99650.36;;;1.45;72.57
50484;BME280;36409;52.168;20.878;2024-02-26T03:22:18;99647.79;;;1.45;73.14
50484;BME280;36409;52.168;20.878;2024-02-26T03:24:51;99646.91;;;1.44;72.38
50484;BME280;36409;52.168;20.878;2024-02-26T03:27:23;99646.95;;;1.46;73.18
50484;BME280;36409;52.168;20.878;2024-02-26T03:30:00;99638.36;;;1.47;72.86
50484;BME280;36409;52.168;20.878;2024-02-26T03:32:37;99634.09;;;1.49;72.97
50484;BME280;36409;52.168;20.878;2024-02-26T03:35:10;99638.40;;;1.50;72.98
50484;BME280;36409;52.168;20.878;2024-02-26T03:37:43;99639.28;;;1.50;73.16
50484;BME280;36409;52.168;20.878;2024-02-26T03:40:16;99640.13;;;1.51;72.81
50484;BME280;36409;52.168;20.878;2024-02-26T03:42:50;99630.68;;;1.50;72.93
50484;BME280;36409;52.168;20.878;2024-02-26T03:45:23;99634.94;;;1.48;72.44
50484;BME280;36409;52.168;20.878;2024-02-26T03:48:08;99635.78;;;1.45;72.72
50484;BME280;36409;52.168;20.878;2024-02-26T03:50:41;99644.34;;;1.44;73.42
50484;BME280;36409;52.168;20.878;2024-02-26T03:53:13;99642.64;;;1.45;72.59
50484;BME280;36409;52.168;20.878;2024-02-26T03:55:46;99636.66;;;1.47;72.72
50484;BME280;36409;52.168;20.878;2024-02-26T03:58:18;99645.28;;;1.52;72.70
50484;BME280;36409;52.168;20.878;2024-02-26T04:00:51;99648.78;;;1.58;73.40
50484;BME280;36409;52.168;20.878;2024-02-26T04:03:23;99643.69;;;1.62;72.91
50484;BME280;36409;52.168;20.878;2024-02-26T04:05:59;99641.16;;;1.67;73.12
50484;BME280;36409;52.168;20.878;2024-02-26T04:08:37;99646.34;;;1.70;73.23
50484;BME280;36409;52.168;20.878;2024-02-26T04:11:09;99643.77;;;1.72;73.18
50484;BME280;36409;52.168;20.878;2024-02-26T04:13:44;99645.54;;;1.76;73.84
50484;BME280;36409;52.168;20.878;2024-02-26T04:16:20;99647.27;;;1.77;73.17
50484;BME280;36409;52.168;20.878;2024-02-26T04:18:53;99642.97;;;1.77;74.00
50484;BME280;36409;52.168;20.878;2024-02-26T04:21:25;99640.44;;;1.80;73.81
50484;BME280;36409;52.168;20.878;2024-02-26T04:23:58;99639.59;;;1.83;73.17
50484;BME280;36409;52.168;20.878;2024-02-26T04:26:44;99640.44;;;1.82;73.16
50484;BME280;36409;52.168;20.878;2024-02-26T04:29:17;99643.05;;;1.85;73.36
50484;BME280;36409;52.168;20.878;2024-02-26T04:31:49;99638.75;;;1.84;73.39
50484;BME280;36409;52.168;20.878;2024-02-26T04:34:22;99646.47;;;1.82;74.12
50484;BME280;36409;52.168;20.878;2024-02-26T04:36:55;99639.59;;;1.81;73.45
50484;BME280;36409;52.168;20.878;2024-02-26T04:39:27;99640.44;;;1.79;73.36
50484;BME280;36409;52.168;20.878;2024-02-26T04:42:02;99641.28;;;1.78;74.03
50484;BME280;36409;52.168;20.878;2024-02-26T04:44:42;99643.81;;;1.73;73.68
50484;BME280;36409;52.168;20.878;2024-02-26T04:47:30;99634.28;;;1.66;74.12
50484;BME280;36409;52.168;20.878;2024-02-26T04:50:14;99641.98;;;1.63;74.16
50484;BME280;36409;52.168;20.878;2024-02-26T04:52:46;99644.56;;;1.63;74.19
50484;BME280;36409;52.168;20.878;2024-02-26T04:55:19;99644.56;;;1.63;73.86
50484;BME280;36409;52.168;20.878;2024-02-26T04:57:51;99643.69;;;1.62;74.17
50484;BME280;36409;52.168;20.878;2024-02-26T05:00:24;99650.52;;;1.60;74.14
50484;BME280;36409;52.168;20.878;2024-02-26T05:02:59;99647.13;;;1.63;73.56
50484;BME280;36409;52.168;20.878;2024-02-26T05:08:19;99647.98;;;1.65;74.10
50484;BME280;36409;52.168;20.878;2024-02-26T05:10:52;99659.16;;;1.65;73.62
50484;BME280;36409;52.168;20.878;2024-02-26T05:13:24;99660.90;;;1.69;74.60
50484;BME280;36409;52.168;20.878;2024-02-26T05:15:57;99655.75;;;1.69;73.98
50484;BME280;36409;52.168;20.878;2024-02-26T05:18:30;99665.24;;;1.74;73.88
50484;BME280;36409;52.168;20.878;2024-02-26T05:21:03;99659.30;;;1.78;74.17
50484;BME280;36409;52.168;20.878;2024-02-26T05:23:47;99652.45;;;1.80;74.30
50484;BME280;36409;52.168;20.878;2024-02-26T05:26:30;99655.08;;;1.86;74.24
50484;BME280;36409;52.168;20.878;2024-02-26T05:29:06;99661.95;;;1.89;74.08
50484;BME280;36409;52.168;20.878;2024-02-26T05:31:54;99662.84;;;1.92;74.25
50484;BME280;36409;52.168;20.878;2024-02-26T05:34:27;99666.34;;;1.97;75.00
50484;BME280;36409;52.168;20.878;2024-02-26T05:36:59;99667.27;;;2.03;75.10
50484;BME280;36409;52.168;20.878;2024-02-26T05:39:32;99677.61;;;2.10;74.20
50484;BME280;36409;52.168;20.878;2024-02-26T05:42:05;99671.65;;;2.14;74.84
50484;BME280;36409;52.168;20.878;2024-02-26T05:44:50;99677.69;;;2.20;74.92
50484;BME280;36409;52.168;20.878;2024-02-26T05:47:22;99664.88;;;2.24;74.29
50484;BME280;36409;52.168;20.878;2024-02-26T05:49:54;99670.91;;;2.29;74.37
50484;BME280;36409;52.168;20.878;2024-02-26T05:52:30;99670.10;;;2.35;74.34
50484;BME280;36409;52.168;20.878;2024-02-26T05:55:03;99671.02;;;2.40;75.21
50484;BME280;36409;52.168;20.878;2024-02-26T05:57:39;99671.05;;;2.46;74.35
50484;BME280;36409;52.168;20.878;2024-02-26T06:00:22;99668.50;;;2.51;75.29
50484;BME280;36409;52.168;20.878;2024-02-26T06:02:54;99678.03;;;2.60;75.00
50484;BME280;36409;52.168;20.878;2024-02-26T06:05:26;99678.94;;;2.68;75.56
50484;BME280;36409;52.168;20.878;2024-02-26T06:08:10;99689.33;;;2.79;75.23
50484;BME280;36409;52.168;20.878;2024-02-26T06:10:46;99689.39;;;2.88;75.51
50484;BME280;36409;52.168;20.878;2024-02-26T06:13:18;99689.41;;;2.94;75.05
50484;BME280;36409;52.168;20.878;2024-02-26T06:15:51;99681.70;;;2.98;75.34
50484;BME280;36409;52.168;20.878;2024-02-26T06:18:24;99684.30;;;3.02;75.59
50484;BME280;36409;52.168;20.878;2024-02-26T06:20:58;99684.33;;;3.07;74.72
50484;BME280;36409;52.168;20.878;2024-02-26T06:23:33;99691.27;;;3.14;75.68
50484;BME280;36409;52.168;20.878;2024-02-26T06:26:07;99690.42;;;3.23;75.47
50484;BME280;36409;52.168;20.878;2024-02-26T06:28:39;99691.34;;;3.34;75.24
50484;BME280;36409;52.168;20.878;2024-02-26T06:31:14;99694.86;;;3.47;75.92
50484;BME280;36409;52.168;20.878;2024-02-26T06:33:57;99693.17;;;3.59;75.34
50484;BME280;36409;52.168;20.878;2024-02-26T06:36:31;99692.35;;;3.69;75.63
50484;BME280;36409;52.168;20.878;2024-02-26T06:39:15;99691.52;;;3.79;75.50
50484;BME280;36409;52.168;20.878;2024-02-26T06:41:49;99692.39;;;3.88;75.73
50484;BME280;36409;52.168;20.878;2024-02-26T06:44:25;99687.27;;;3.98;75.25
50484;BME280;36409;52.168;20.878;2024-02-26T06:47:05;99688.14;;;4.10;75.00
50484;BME280;36409;52.168;20.878;2024-02-26T06:49:40;99699.33;;;4.24;75.57
50484;BME280;36409;52.168;20.878;2024-02-26T06:52:13;99696.78;;;4.43;75.58
50484;BME280;36409;52.168;20.878;2024-02-26T06:54:49;99701.94;;;4.64;75.94
50484;BME280;36409;52.168;20.878;2024-02-26T06:57:22;99690.70;;;4.86;76.01
50484;BME280;36409;52.168;20.878;2024-02-26T07:00:00;99696.72;;;5.00;75.83
50484;BME280;36409;52.168;20.878;2024-02-26T07:02:35;99701.88;;;5.11;75.76
50484;BME280;36409;52.168;20.878;2024-02-26T07:05:10;99697.53;;;5.19;76.12
50484;BME280;36409;52.168;20.878;2024-02-26T07:07:43;99714.75;;;5.30;76.06
50484;BME280;36409;52.168;20.878;2024-02-26T07:10:15;99708.66;;;5.41;75.87
50484;BME280;36409;52.168;20.878;2024-02-26T07:12:53;99708.62;;;5.54;76.11
50484;BME280;36409;52.168;20.878;2024-02-26T07:15:25;99707.69;;;5.69;75.98
50484;BME280;36409;52.168;20.878;2024-02-26T07:18:07;99708.48;;;5.83;76.34
50484;BME280;36409;52.168;20.878;2024-02-26T07:20:42;99701.52;;;5.92;76.31
50484;BME280;36409;52.168;20.878;2024-02-26T07:23:17;99706.70;;;5.99;76.39
50484;BME280;36409;52.168;20.878;2024-02-26T07:25:52;99700.62;;;6.07;76.11
50484;BME280;36409;52.168;20.878;2024-02-26T07:28:25;99712.66;;;6.17;76.45
50484;BME280;36409;52.168;20.878;2024-02-26T07:30:57;99705.56;;;6.39;75.98
50484;BME280;36409;52.168;20.878;2024-02-26T07:33:32;99708.09;;;7.39;75.98
50484;BME280;36409;52.168;20.878;2024-02-26T07:36:09;99709.30;;;9.84;73.70
50484;BME280;36409;52.168;20.878;2024-02-26T07:38:41;99707.01;;;11.48;72.92
50484;BME280;36409;52.168;20.878;2024-02-26T07:41:16;99707.22;;;13.09;72.46
50484;BME280;36409;52.168;20.878;2024-02-26T07:43:48;99703.19;;;14.62;71.06
50484;BME280;36409;52.168;20.878;2024-02-26T07:46:22;99699.10;;;15.58;71.17
50484;BME280;36409;52.168;20.878;2024-02-26T07:48:54;99703.20;;;16.75;69.53
50484;BME280;36409;52.168;20.878;2024-02-26T07:51:27;99707.60;;;17.77;68.73
50484;BME280;36409;52.168;20.878;2024-02-26T07:54:07;99704.14;;;19.16;67.92
50484;BME280;36409;52.168;20.878;2024-02-26T07:56:40;99706.23;;;19.69;67.35
50484;BME280;36409;52.168;20.878;2024-02-26T07:59:12;99706.25;;;20.38;65.34
50484;BME280;36409;52.168;20.878;2024-02-26T08:01:51;99711.64;;;21.17;65.09
50484;BME280;36409;52.168;20.878;2024-02-26T08:04:31;99707.83;;;21.97;63.50
50484;BME280;36409;52.168;20.878;2024-02-26T08:07:12;99710.45;;;22.59;63.01
50484;BME280;36409;52.168;20.878;2024-02-26T08:09:46;99714.05;;;23.52;61.58
50484;BME280;36409;52.168;20.878;2024-02-26T08:12:19;99718.02;;;24.03;60.16
50484;BME280;36409;52.168;20.878;2024-02-26T08:14:51;99715.60;;;24.44;59.46
50484;BME280;36409;52.168;20.878;2024-02-26T08:17:25;99704.07;;;24.43;58.94
50484;BME280;36409;52.168;20.878;2024-02-26T08:19:58;99712.71;;;23.35;60.15
50484;BME280;36409;52.168;20.878;2024-02-26T08:22:30;99704.91;;;22.62;59.63
50484;BME280;36409;52.168;20.878;2024-02-26T08:25:04;99711.84;;;21.01;60.05
50484;BME280;36409;52.168;20.878;2024-02-26T08:27:39;99720.88;;;19.45;61.32
50484;BME280;36409;52.168;20.878;2024-02-26T08:30:12;99720.67;;;18.12;61.33
50484;BME280;36409;52.168;20.878;2024-02-26T08:32:51;99733.21;;;17.08;61.45
50484;BME280;36409;52.168;20.878;2024-02-26T08:35:24;99733.40;;;16.14;61.82
50484;BME280;36409;52.168;20.878;2024-02-26T08:37:56;99740.60;;;15.51;62.15
50484;BME280;36409;52.168;20.878;2024-02-26T08:40:29;99738.66;;;14.94;62.34
50484;BME280;36409;52.168;20.878;2024-02-26T08:43:01;99743.08;;;14.49;63.26
50484;BME280;36409;52.168;20.878;2024-02-26T08:45:33;99743.80;;;14.09;62.99
50484;BME280;36409;52.168;20.878;2024-02-26T08:48:07;99734.59;;;13.74;64.22
50484;BME280;36409;52.168;20.878;2024-02-26T08:50:40;99742.51;;;13.49;64.13
50484;BME280;36409;52.168;20.878;2024-02-26T08:53:12;99743.48;;;13.21;63.30
50484;BME280;36409;52.168;20.878;2024-02-26T08:55:54;99746.94;;;12.96;63.77
50484;BME280;36409;52.168;20.878;2024-02-26T08:58:27;99739.59;;;12.81;63.92
50484;BME280;36409;52.168;20.878;2024-02-26T09:01:00;99748.72;;;12.69;64.69
50484;BME280;36409;52.168;20.878;2024-02-26T09:03:32;99740.36;;;12.58;64.37
50484;BME280;36409;52.168;20.878;2024-02-26T09:06:05;99749.27;;;12.52;65.38
50484;BME280;36409;52.168;20.878;2024-02-26T09:08:40;99743.88;;;12.57;64.98
50484;BME280;36409;52.168;20.878;2024-02-26T09:11:12;99750.46;;;12.69;65.14
50484;BME280;36409;52.168;20.878;2024-02-26T09:13:45;99748.66;;;12.71;65.07
50484;BME280;36409;52.168;20.878;2024-02-26T09:16:17;99749.31;;;12.77;65.18
50484;BME280;36409;52.168;20.878;2024-02-26T09:18:50;99750.87;;;12.83;65.41
50484;BME280;36409;52.168;20.878;2024-02-26T09:21:25;99743.67;;;13.15;64.33
50484;BME280;36409;52.168;20.878;2024-02-26T09:23:57;99743.18;;;15.72;61.52
50484;BME280;36409;52.168;20.878;2024-02-26T09:26:32;99744.44;;;18.12;60.14
50484;BME280;36409;52.168;20.878;2024-02-26T09:29:07;99739.28;;;17.93;61.10
50484;BME280;36409;52.168;20.878;2024-02-26T09:31:43;99728.53;;;18.60;60.32
50484;BME280;36409;52.168;20.878;2024-02-26T09:34:18;99735.45;;;17.83;61.42
50484;BME280;36409;52.168;20.878;2024-02-26T09:36:51;99731.44;;;18.56;59.92
50484;BME280;36409;52.168;20.878;2024-02-26T09:39:30;99733.81;;;17.64;61.25
50484;BME280;36409;52.168;20.878;2024-02-26T09:42:05;99737.19;;;16.99;61.84
50484;BME280;36409;52.168;20.878;2024-02-26T09:44:41;99730.95;;;18.79;59.42
50484;BME280;36409;52.168;20.878;2024-02-26T09:47:16;99731.90;;;18.32;59.62
50484;BME280;36409;52.168;20.878;2024-02-26T09:49:49;99737.81;;;19.43;58.65
50484;BME280;36409;52.168;20.878;2024-02-26T09:52:22;99742.31;;;19.84;57.44
50484;BME280;36409;52.168;20.878;2024-02-26T09:54:56;99736.41;;;20.50;56.09
50484;BME280;36409;52.168;20.878;2024-02-26T09:57:28;99735.51;;;21.82;55.19
50484;BME280;36409;52.168;20.878;2024-02-26T10:00:04;99731.45;;;22.50;53.62
50484;BME280;36409;52.168;20.878;2024-02-26T10:02:41;99745.61;;;23.22;53.21
50484;BME280;36409;52.168;20.878;2024-02-26T10:05:16;99742.34;;;22.34;54.57
50484;BME280;36409;52.168;20.878;2024-02-26T10:07:49;99756.09;;;22.28;53.12
50484;BME280;36409;52.168;20.878;2024-02-26T10:10:23;99746.55;;;21.75;54.90
50484;BME280;36409;52.168;20.878;2024-02-26T10:12:56;99748.98;;;21.53;54.79
50484;BME280;36409;52.168;20.878;2024-02-26T10:15:28;99752.39;;;21.03;55.45
50484;BME280;36409;52.168;20.878;2024-02-26T10:18:01;99748.50;;;20.27;56.06
50484;BME280;36409;52.168;20.878;2024-02-26T10:20:36;99749.82;;;19.63;57.16
50484;BME280;36409;52.168;20.878;2024-02-26T10:23:11;99753.41;;;19.62;57.70
50484;BME280;36409;52.168;20.878;2024-02-26T10:25:54;99758.73;;;19.03;57.35
50484;BME280;36409;52.168;20.878;2024-02-26T10:28:26;99755.06;;;17.95;57.40
50484;BME280;36409;52.168;20.878;2024-02-26T10:31:02;99760.39;;;16.91;57.63
50484;BME280;36409;52.168;20.878;2024-02-26T10:33:35;99766.48;;;16.19;58.61
50484;BME280;36409;52.168;20.878;2024-02-26T10:36:13;99766.86;;;15.72;59.16
50484;BME280;36409;52.168;20.878;2024-02-26T10:38:46;99764.52;;;15.45;59.57
50484;BME280;36409;52.168;20.878;2024-02-26T10:41:26;99766.53;;;15.19;59.63
50484;BME280;36409;52.168;20.878;2024-02-26T10:44:00;99766.24;;;14.84;59.97
50484;BME280;36409;52.168;20.878;2024-02-26T10:46:33;99765.76;;;14.52;59.88
50484;BME280;36409;52.168;20.878;2024-02-26T10:49:16;99773.10;;;14.20;60.39
50484;BME280;36409;52.168;20.878;2024-02-26T10:51:56;99770.64;;;13.93;61.00
50484;BME280;36409;52.168;20.878;2024-02-26T10:54:30;99780.25;;;13.69;60.92
50484;BME280;36409;52.168;20.878;2024-02-26T10:57:05;99772.32;;;13.47;60.67
50484;BME280;36409;52.168;20.878;2024-02-26T10:59:40;99770.33;;;13.28;61.76
50484;BME280;36409;52.168;20.878;2024-02-26T11:02:17;99772.23;;;13.23;61.91
50484;BME280;36409;52.168;20.878;2024-02-26T11:04:50;99768.97;;;13.16;61.91
50484;BME280;36409;52.168;20.878;2024-02-26T11:07:25;99778.70;;;13.12;61.94
50484;BME280;36409;52.168;20.878;2024-02-26T11:10:00;99772.72;;;13.09;61.68
50484;BME280;36409;52.168;20.878;2024-02-26T11:12:36;99774.69;;;13.02;62.30
50484;BME280;36409;52.168;20.878;2024-02-26T11:15:10;99771.73;;;12.86;62.36
50484;BME280;36409;52.168;20.878;2024-02-26T11:17:44;99772.16;;;12.72;62.11
50484;BME280;36409;52.168;20.878;2024-02-26T11:20:19;99779.33;;;12.67;62.14
50484;BME280;36409;52.168;20.878;2024-02-26T11:22:56;99778.75;;;12.57;62.65
50484;BME280;36409;52.168;20.878;2024-02-26T11:25:29;99776.41;;;12.49;63.02
50484;BME280;36409;52.168;20.878;2024-02-26T11:28:07;99780.30;;;12.36;62.62
50484;BME280;36409;52.168;20.878;2024-02-26T11:30:50;99778.30;;;12.44;62.76
50484;BME280;36409;52.168;20.878;2024-02-26T11:33:24;99776.19;;;12.56;63.08
50484;BME280;36409;52.168;20.878;2024-02-26T11:35:57;99775.80;;;12.68;62.82
50484;BME280;36409;52.168;20.878;2024-02-26T11:38:30;99773.99;;;12.70;63.15
50484;BME280;36409;52.168;20.878;2024-02-26T11:41:02;99769.14;;;12.85;63.86
50484;BME280;36409;52.168;20.878;2024-02-26T11:43:57;99765.17;;;13.00;63.26
50484;BME280;36409;52.168;20.878;2024-02-26T11:46:33;99763.24;;;13.30;64.07
50484;BME280;36409;52.168;20.878;2024-02-26T11:49:31;99757.44;;;13.47;63.58
50484;BME280;36409;52.168;20.878;2024-02-26T11:52:12;99762.20;;;13.61;63.72
50484;BME280;36409;52.168;20.878;2024-02-26T11:54:49;99764.69;;;13.64;64.20
50484;BME280;36409;52.168;20.878;2024-02-26T11:57:28;99751.27;;;13.73;63.88
50484;BME280;36409;52.168;20.878;2024-02-26T12:00:14;99754.55;;;13.79;64.45
50484;BME280;36409;52.168;20.878;2024-02-26T12:02:49;99761.96;;;13.67;63.53
50484;BME280;36409;52.168;20.878;2024-02-26T12:05:32;99763.28;;;13.55;63.51
50484;BME280;36409;52.168;20.878;2024-02-26T12:08:10;99762.80;;;13.44;63.90
50484;BME280;36409;52.168;20.878;2024-02-26T12:10:47;99762.67;;;13.47;63.30
50484;BME280;36409;52.168;20.878;2024-02-26T12:13:20;99751.11;;;13.53;63.65
50484;BME280;36409;52.168;20.878;2024-02-26T12:16:07;99751.11;;;13.53;63.49
50484;BME280;36409;52.168;20.878;2024-02-26T12:18:45;99744.02;;;13.56;64.13
50484;BME280;36409;52.168;20.878;2024-02-26T12:21:18;99744.92;;;13.55;63.45
50484;BME280;36409;52.168;20.878;2024-02-26T12:24:07;99745.70;;;13.57;64.37
50484;BME280;36409;52.168;20.878;2024-02-26T12:26:44;99739.68;;;13.55;63.51
50484;BME280;36409;52.168;20.878;2024-02-26T12:29:18;99743.14;;;13.56;63.59
50484;BME280;36409;52.168;20.878;2024-02-26T12:31:51;99753.70;;;13.54;64.07
50484;BME280;36409;52.168;20.878;2024-02-26T12:34:23;99758.03;;;13.55;63.95
50484;BME280;36409;52.168;20.878;2024-02-26T12:36:56;99752.02;;;13.52;63.26
50484;BME280;36409;52.168;20.878;2024-02-26T12:39:29;99737.06;;;13.55;63.75
50484;BME280;36409;52.168;20.878;2024-02-26T12:42:02;99732.48;;;13.61;64.00
50484;BME280;36409;52.168;20.878;2024-02-26T12:44:35;99738.36;;;13.67;63.85
50484;BME280;36409;52.168;20.878;2024-02-26T12:47:07;99738.15;;;13.73;64.06
50484;BME280;36409;52.168;20.878;2024-02-26T12:49:42;99746.12;;;13.70;63.98
50484;BME280;36409;52.168;20.878;2024-02-26T12:52:14;99738.36;;;13.67;63.57
50484;BME280;36409;52.168;20.878;2024-02-26T12:54:46;99742.80;;;13.65;63.53
50484;BME280;36409;52.168;20.878;2024-02-26T12:57:19;99742.94;;;13.62;64.33
50484;BME280;36409;52.168;20.878;2024-02-26T12:59:51;99741.33;;;13.58;63.49
50484;BME280;36409;52.168;20.878;2024-02-26T13:02:24;99745.77;;;13.56;64.46
50484;BME280;36409;52.168;20.878;2024-02-26T13:04:58;99751.88;;;13.56;63.67
50484;BME280;36409;52.168;20.878;2024-02-26T13:07:32;99745.83;;;13.54;64.38
50484;BME280;36409;52.168;20.878;2024-02-26T13:10:05;99744.96;;;13.54;64.16
50484;BME280;36409;52.168;20.878;2024-02-26T13:12:44;99741.33;;;13.58;63.94
50484;BME280;36409;52.168;20.878;2024-02-26T13:15:20;99738.77;;;13.56;63.92
50484;BME280;36409;52.168;20.878;2024-02-26T13:18:11;99739.61;;;13.57;64.28
50484;BME280;36409;52.168;20.878;2024-02-26T13:20:44;99737.97;;;13.54;63.69
50484;BME280;36409;52.168;20.878;2024-02-26T13:23:17;99733.67;;;13.52;63.86
50484;BME280;36409;52.168;20.878;2024-02-26T13:25:49;99743.42;;;13.48;63.38
50484;BME280;36409;52.168;20.878;2024-02-26T13:28:28;99747.02;;;13.46;63.34
50484;BME280;36409;52.168;20.878;2024-02-26T13:31:01;99750.61;;;13.43;63.75
50484;BME280;36409;52.168;20.878;2024-02-26T13:33:35;99747.98;;;13.43;63.95
50484;BME280;36409;52.168;20.878;2024-02-26T13:36:08;99754.17;;;13.40;63.79
50484;BME280;36409;52.168;20.878;2024-02-26T13:38:54;99754.27;;;13.37;63.58